sensor_id;sensor_type;location;lat;lon;timestamp;P1;durP1;ratioP1;P2;durP2;ratioP2
74152;SDS011;62505;46.070;14.492;2023-08-06T00:01:55;0.77;;;0.60;;
74152;SDS011;62505;46.070;14.492;2023-08-06T00:04:22;1.00;;;0.60;;
74152;SDS011;62505;46.070;14.492;2023-08-06T00:06:49;2.08;;;0.95;;
74152;SDS011;62505;46.070;14.492;2023-08-06T00:09:16;0.73;;;0.63;;
74152;SDS011;62505;46.070;14.492;2023-08-06T00:11:45;1.10;;;0.68;;
74152;SDS011;62505;46.070;14.492;2023-08-06T00:14:12;0.80;;;0.60;;
74152;SDS011;62505;46.070;14.492;2023-08-06T00:16:40;1.13;;;0.90;;
74152;SDS011;62505;46.070;14.492;2023-08-06T00:19:09;2.25;;;0.80;;
74152;SDS011;62505;46.070;14.492;2023-08-06T00:21:37;2.28;;;1.10;;
74152;SDS011;62505;46.070;14.492;2023-08-06T00:24:04;1.35;;;0.95;;
74152;SDS011;62505;46.070;14.492;2023-08-06T00:26:31;3.22;;;1.00;;
74152;SDS011;62505;46.070;14.492;2023-08-06T00:28:59;0.95;;;0.80;;
74152;SDS011;62505;46.070;14.492;2023-08-06T00:31:27;0.68;;;0.55;;
74152;SDS011;62505;46.070;14.492;2023-08-06T00:33:54;1.30;;;0.60;;
74152;SDS011;62505;46.070;14.492;2023-08-06T00:36:21;1.33;;;0.75;;
74152;SDS011;62505;46.070;14.492;2023-08-06T00:38:48;0.57;;;0.57;;
74152;SDS011;62505;46.070;14.492;2023-08-06T00:41:15;3.88;;;0.93;;
74152;SDS011;62505;46.070;14.492;2023-08-06T00:43:42;1.38;;;0.70;;
74152;SDS011;62505;46.070;14.492;2023-08-06T00:46:10;0.98;;;0.70;;
74152;SDS011;62505;46.070;14.492;2023-08-06T00:48:37;0.65;;;0.65;;
74152;SDS011;62505;46.070;14.492;2023-08-06T00:51:05;0.82;;;0.60;;
74152;SDS011;62505;46.070;14.492;2023-08-06T00:53:32;2.35;;;0.73;;
74152;SDS011;62505;46.070;14.492;2023-08-06T00:56:00;1.23;;;0.80;;
74152;SDS011;62505;46.070;14.492;2023-08-06T00:58:27;2.85;;;0.80;;
74152;SDS011;62505;46.070;14.492;2023-08-06T01:00:55;2.08;;;0.68;;
74152;SDS011;62505;46.070;14.492;2023-08-06T01:03:23;1.08;;;0.80;;
74152;SDS011;62505;46.070;14.492;2023-08-06T01:05:51;4.38;;;0.88;;
74152;SDS011;62505;46.070;14.492;2023-08-06T01:08:20;1.88;;;0.60;;
74152;SDS011;62505;46.070;14.492;2023-08-06T01:10:59;0.80;;;0.70;;
74152;SDS011;62505;46.070;14.492;2023-08-06T01:13:37;0.95;;;0.68;;
74152;SDS011;62505;46.070;14.492;2023-08-06T01:16:08;2.42;;;0.70;;
74152;SDS011;62505;46.070;14.492;2023-08-06T01:18:37;1.02;;;0.45;;
74152;SDS011;62505;46.070;14.492;2023-08-06T01:21:08;2.38;;;0.68;;
74152;SDS011;62505;46.070;14.492;2023-08-06T01:23:35;2.70;;;0.75;;
74152;SDS011;62505;46.070;14.492;2023-08-06T01:26:04;2.17;;;0.60;;
74152;SDS011;62505;46.070;14.492;2023-08-06T01:28:40;1.42;;;0.70;;
74152;SDS011;62505;46.070;14.492;2023-08-06T01:31:10;0.80;;;0.45;;
74152;SDS011;62505;46.070;14.492;2023-08-06T01:33:43;0.60;;;0.60;;
74152;SDS011;62505;46.070;14.492;2023-08-06T01:36:14;3.42;;;0.70;;
74152;SDS011;62505;46.070;14.492;2023-08-06T01:38:43;1.48;;;0.52;;
74152;SDS011;62505;46.070;14.492;2023-08-06T01:41:10;0.90;;;0.40;;
74152;SDS011;62505;46.070;14.492;2023-08-06T01:43:38;0.88;;;0.50;;
74152;SDS011;62505;46.070;14.492;2023-08-06T01:46:05;1.90;;;0.50;;
74152;SDS011;62505;46.070;14.492;2023-08-06T01:48:31;0.50;;;0.50;;
74152;SDS011;62505;46.070;14.492;2023-08-06T01:50:59;0.60;;;0.60;;
74152;SDS011;62505;46.070;14.492;2023-08-06T01:53:27;1.30;;;0.40;;
74152;SDS011;62505;46.070;14.492;2023-08-06T01:55:54;2.45;;;0.50;;
74152;SDS011;62505;46.070;14.492;2023-08-06T01:58:21;0.60;;;0.50;;
74152;SDS011;62505;46.070;14.492;2023-08-06T02:00:48;2.60;;;0.60;;
74152;SDS011;62505;46.070;14.492;2023-08-06T02:03:15;0.65;;;0.55;;
74152;SDS011;62505;46.070;14.492;2023-08-06T02:05:42;1.08;;;0.77;;
74152;SDS011;62505;46.070;14.492;2023-08-06T02:08:10;0.40;;;0.40;;
74152;SDS011;62505;46.070;14.492;2023-08-06T02:10:39;0.93;;;0.60;;
74152;SDS011;62505;46.070;14.492;2023-08-06T02:13:06;0.60;;;0.55;;
74152;SDS011;62505;46.070;14.492;2023-08-06T02:15:33;1.02;;;0.60;;
74152;SDS011;62505;46.070;14.492;2023-08-06T02:18:00;0.50;;;0.50;;
74152;SDS011;62505;46.070;14.492;2023-08-06T02:20:27;1.25;;;0.70;;
74152;SDS011;62505;46.070;14.492;2023-08-06T02:22:54;0.88;;;0.60;;
74152;SDS011;62505;46.070;14.492;2023-08-06T02:25:21;0.80;;;0.50;;
74152;SDS011;62505;46.070;14.492;2023-08-06T02:27:50;0.68;;;0.60;;
74152;SDS011;62505;46.070;14.492;2023-08-06T02:30:17;0.50;;;0.50;;
74152;SDS011;62505;46.070;14.492;2023-08-06T02:32:44;0.98;;;0.50;;
74152;SDS011;62505;46.070;14.492;2023-08-06T02:35:11;0.40;;;0.40;;
74152;SDS011;62505;46.070;14.492;2023-08-06T02:37:38;3.22;;;0.43;;
74152;SDS011;62505;46.070;14.492;2023-08-06T02:40:05;1.60;;;0.38;;
74152;SDS011;62505;46.070;14.492;2023-08-06T02:42:33;1.85;;;0.50;;
74152;SDS011;62505;46.070;14.492;2023-08-06T02:45:02;0.73;;;0.50;;
74152;SDS011;62505;46.070;14.492;2023-08-06T02:47:29;0.65;;;0.50;;
74152;SDS011;62505;46.070;14.492;2023-08-06T02:49:57;3.15;;;0.52;;
74152;SDS011;62505;46.070;14.492;2023-08-06T02:52:24;2.40;;;0.50;;
74152;SDS011;62505;46.070;14.492;2023-08-06T02:54:51;0.45;;;0.45;;
74152;SDS011;62505;46.070;14.492;2023-08-06T02:57:18;1.20;;;0.50;;
74152;SDS011;62505;46.070;14.492;2023-08-06T02:59:45;0.75;;;0.50;;
74152;SDS011;62505;46.070;14.492;2023-08-06T03:02:13;0.68;;;0.40;;
74152;SDS011;62505;46.070;14.492;2023-08-06T03:04:40;0.73;;;0.60;;
74152;SDS011;62505;46.070;14.492;2023-08-06T03:07:07;0.77;;;0.50;;
74152;SDS011;62505;46.070;14.492;2023-08-06T03:09:34;0.50;;;0.50;;
74152;SDS011;62505;46.070;14.492;2023-08-06T03:12:01;0.80;;;0.68;;
74152;SDS011;62505;46.070;14.492;2023-08-06T03:14:28;1.38;;;0.70;;
74152;SDS011;62505;46.070;14.492;2023-08-06T03:16:55;0.60;;;0.50;;
74152;SDS011;62505;46.070;14.492;2023-08-06T03:19:24;2.25;;;0.60;;
74152;SDS011;62505;46.070;14.492;2023-08-06T03:21:51;1.42;;;0.40;;
74152;SDS011;62505;46.070;14.492;2023-08-06T03:24:18;0.80;;;0.68;;
74152;SDS011;62505;46.070;14.492;2023-08-06T03:26:45;0.80;;;0.50;;
74152;SDS011;62505;46.070;14.492;2023-08-06T03:29:12;1.55;;;0.73;;
74152;SDS011;62505;46.070;14.492;2023-08-06T03:31:39;0.70;;;0.68;;
74152;SDS011;62505;46.070;14.492;2023-08-06T03:34:06;2.25;;;0.50;;
74152;SDS011;62505;46.070;14.492;2023-08-06T03:36:34;0.65;;;0.55;;
74152;SDS011;62505;46.070;14.492;2023-08-06T03:39:01;1.90;;;0.60;;
74152;SDS011;62505;46.070;14.492;2023-08-06T03:41:29;1.65;;;1.08;;
74152;SDS011;62505;46.070;14.492;2023-08-06T03:43:56;0.70;;;0.40;;
74152;SDS011;62505;46.070;14.492;2023-08-06T03:46:23;0.30;;;0.30;;
74152;SDS011;62505;46.070;14.492;2023-08-06T03:48:50;1.73;;;0.57;;
74152;SDS011;62505;46.070;14.492;2023-08-06T03:51:17;0.68;;;0.60;;
74152;SDS011;62505;46.070;14.492;2023-08-06T03:53:46;0.82;;;0.60;;
74152;SDS011;62505;46.070;14.492;2023-08-06T03:56:13;0.98;;;0.50;;
74152;SDS011;62505;46.070;14.492;2023-08-06T03:58:40;0.93;;;0.52;;
74152;SDS011;62505;46.070;14.492;2023-08-06T04:01:07;0.98;;;0.50;;
74152;SDS011;62505;46.070;14.492;2023-08-06T04:03:34;1.58;;;0.70;;
74152;SDS011;62505;46.070;14.492;2023-08-06T04:06:02;0.55;;;0.55;;
74152;SDS011;62505;46.070;14.492;2023-08-06T04:08:29;1.00;;;0.55;;
74152;SDS011;62505;46.070;14.492;2023-08-06T04:10:58;1.27;;;0.55;;
74152;SDS011;62505;46.070;14.492;2023-08-06T04:13:25;0.95;;;0.50;;
74152;SDS011;62505;46.070;14.492;2023-08-06T04:15:52;1.60;;;0.60;;
74152;SDS011;62505;46.070;14.492;2023-08-06T04:18:19;0.82;;;0.52;;
74152;SDS011;62505;46.070;14.492;2023-08-06T04:20:46;0.50;;;0.40;;
74152;SDS011;62505;46.070;14.492;2023-08-06T04:23:14;0.80;;;0.45;;
74152;SDS011;62505;46.070;14.492;2023-08-06T04:25:41;0.85;;;0.80;;
74152;SDS011;62505;46.070;14.492;2023-08-06T04:28:10;1.30;;;0.88;;
74152;SDS011;62505;46.070;14.492;2023-08-06T04:30:37;0.88;;;0.70;;
74152;SDS011;62505;46.070;14.492;2023-08-06T04:33:04;2.58;;;0.65;;
74152;SDS011;62505;46.070;14.492;2023-08-06T04:35:31;0.43;;;0.38;;
74152;SDS011;62505;46.070;14.492;2023-08-06T04:37:58;1.75;;;0.60;;
74152;SDS011;62505;46.070;14.492;2023-08-06T04:40:25;0.80;;;0.80;;
74152;SDS011;62505;46.070;14.492;2023-08-06T04:42:53;3.70;;;0.65;;
74152;SDS011;62505;46.070;14.492;2023-08-06T04:45:21;0.45;;;0.40;;
74152;SDS011;62505;46.070;14.492;2023-08-06T04:47:49;1.27;;;0.70;;
74152;SDS011;62505;46.070;14.492;2023-08-06T04:50:16;1.08;;;0.52;;
74152;SDS011;62505;46.070;14.492;2023-08-06T04:52:43;1.80;;;0.60;;
74152;SDS011;62505;46.070;14.492;2023-08-06T04:55:10;1.75;;;0.57;;
74152;SDS011;62505;46.070;14.492;2023-08-06T04:57:37;0.85;;;0.40;;
74152;SDS011;62505;46.070;14.492;2023-08-06T05:00:05;1.33;;;0.50;;
74152;SDS011;62505;46.070;14.492;2023-08-06T05:02:34;3.88;;;0.60;;
74152;SDS011;62505;46.070;14.492;2023-08-06T05:05:03;2.17;;;0.70;;
74152;SDS011;62505;46.070;14.492;2023-08-06T05:07:30;1.67;;;0.60;;
74152;SDS011;62505;46.070;14.492;2023-08-06T05:09:57;2.45;;;0.77;;
74152;SDS011;62505;46.070;14.492;2023-08-06T05:12:24;1.75;;;0.50;;
74152;SDS011;62505;46.070;14.492;2023-08-06T05:14:51;1.10;;;0.50;;
74152;SDS011;62505;46.070;14.492;2023-08-06T05:17:18;4.03;;;0.63;;
74152;SDS011;62505;46.070;14.492;2023-08-06T05:19:49;1.77;;;0.80;;
74152;SDS011;62505;46.070;14.492;2023-08-06T05:22:16;3.80;;;0.55;;
74152;SDS011;62505;46.070;14.492;2023-08-06T05:24:43;0.80;;;0.40;;
74152;SDS011;62505;46.070;14.492;2023-08-06T05:27:10;0.82;;;0.63;;
74152;SDS011;62505;46.070;14.492;2023-08-06T05:29:37;2.78;;;0.90;;
74152;SDS011;62505;46.070;14.492;2023-08-06T05:32:04;2.17;;;0.82;;
74152;SDS011;62505;46.070;14.492;2023-08-06T05:34:31;0.77;;;0.77;;
74152;SDS011;62505;46.070;14.492;2023-08-06T05:37:00;0.77;;;0.77;;
74152;SDS011;62505;46.070;14.492;2023-08-06T05:39:26;1.08;;;0.88;;
74152;SDS011;62505;46.070;14.492;2023-08-06T05:41:54;3.20;;;1.10;;
74152;SDS011;62505;46.070;14.492;2023-08-06T05:44:21;1.75;;;0.95;;
74152;SDS011;62505;46.070;14.492;2023-08-06T05:46:49;2.72;;;1.17;;
74152;SDS011;62505;46.070;14.492;2023-08-06T05:49:16;4.03;;;0.90;;
74152;SDS011;62505;46.070;14.492;2023-08-06T05:51:43;1.73;;;1.08;;
74152;SDS011;62505;46.070;14.492;2023-08-06T05:54:12;1.88;;;1.08;;
74152;SDS011;62505;46.070;14.492;2023-08-06T05:56:39;1.23;;;0.90;;
74152;SDS011;62505;46.070;14.492;2023-08-06T05:59:06;1.40;;;1.10;;
74152;SDS011;62505;46.070;14.492;2023-08-06T06:01:33;1.38;;;1.05;;
74152;SDS011;62505;46.070;14.492;2023-08-06T06:04:00;1.42;;;0.98;;
74152;SDS011;62505;46.070;14.492;2023-08-06T06:06:27;1.13;;;1.00;;
74152;SDS011;62505;46.070;14.492;2023-08-06T06:08:54;2.47;;;1.40;;
74152;SDS011;62505;46.070;14.492;2023-08-06T06:11:22;1.25;;;1.00;;
74152;SDS011;62505;46.070;14.492;2023-08-06T06:13:50;1.88;;;1.00;;
74152;SDS011;62505;46.070;14.492;2023-08-06T06:16:18;1.80;;;1.30;;
74152;SDS011;62505;46.070;14.492;2023-08-06T06:18:45;2.55;;;1.30;;
74152;SDS011;62505;46.070;14.492;2023-08-06T06:21:12;3.20;;;1.60;;
74152;SDS011;62505;46.070;14.492;2023-08-06T06:23:38;2.58;;;1.23;;
74152;SDS011;62505;46.070;14.492;2023-08-06T06:26:05;3.67;;;1.35;;
74152;SDS011;62505;46.070;14.492;2023-08-06T06:28:34;2.08;;;1.15;;
74152;SDS011;62505;46.070;14.492;2023-08-06T06:31:01;1.60;;;1.20;;
74152;SDS011;62505;46.070;14.492;2023-08-06T06:33:28;2.22;;;0.93;;
74152;SDS011;62505;46.070;14.492;2023-08-06T06:35:55;2.53;;;1.10;;
74152;SDS011;62505;46.070;14.492;2023-08-06T06:38:22;8.65;;;7.35;;
74152;SDS011;62505;46.070;14.492;2023-08-06T06:40:53;34.70;;;28.45;;
74152;SDS011;62505;46.070;14.492;2023-08-06T06:43:20;4.90;;;4.40;;
74152;SDS011;62505;46.070;14.492;2023-08-06T06:45:51;5.05;;;4.15;;
74152;SDS011;62505;46.070;14.492;2023-08-06T06:48:19;6.20;;;3.30;;
74152;SDS011;62505;46.070;14.492;2023-08-06T06:50:47;3.55;;;3.00;;
74152;SDS011;62505;46.070;14.492;2023-08-06T06:53:14;4.88;;;2.90;;
74152;SDS011;62505;46.070;14.492;2023-08-06T06:55:41;3.22;;;2.30;;
74152;SDS011;62505;46.070;14.492;2023-08-06T06:58:08;4.88;;;2.40;;
74152;SDS011;62505;46.070;14.492;2023-08-06T07:00:35;3.22;;;2.10;;
74152;SDS011;62505;46.070;14.492;2023-08-06T07:03:04;2.70;;;2.00;;
74152;SDS011;62505;46.070;14.492;2023-08-06T07:05:31;1.55;;;1.33;;
74152;SDS011;62505;46.070;14.492;2023-08-06T07:07:58;2.30;;;1.23;;
74152;SDS011;62505;46.070;14.492;2023-08-06T07:10:25;4.00;;;1.50;;
74152;SDS011;62505;46.070;14.492;2023-08-06T07:12:52;2.97;;;1.00;;
74152;SDS011;62505;46.070;14.492;2023-08-06T07:15:20;3.60;;;1.08;;
74152;SDS011;62505;46.070;14.492;2023-08-06T07:17:47;5.28;;;1.00;;
74152;SDS011;62505;46.070;14.492;2023-08-06T07:20:15;1.00;;;0.70;;
74152;SDS011;62505;46.070;14.492;2023-08-06T07:22:43;1.85;;;0.90;;
74152;SDS011;62505;46.070;14.492;2023-08-06T07:25:10;1.60;;;0.80;;
74152;SDS011;62505;46.070;14.492;2023-08-06T07:27:37;1.15;;;0.60;;
74152;SDS011;62505;46.070;14.492;2023-08-06T07:30:05;1.00;;;0.70;;
74152;SDS011;62505;46.070;14.492;2023-08-06T07:32:32;1.30;;;0.65;;
74152;SDS011;62505;46.070;14.492;2023-08-06T07:35:00;0.60;;;0.60;;
74152;SDS011;62505;46.070;14.492;2023-08-06T07:37:29;0.57;;;0.50;;
74152;SDS011;62505;46.070;14.492;2023-08-06T07:39:56;2.60;;;0.47;;
74152;SDS011;62505;46.070;14.492;2023-08-06T07:42:23;0.60;;;0.50;;
74152;SDS011;62505;46.070;14.492;2023-08-06T07:44:51;0.52;;;0.47;;
74152;SDS011;62505;46.070;14.492;2023-08-06T07:47:19;0.32;;;0.32;;
74152;SDS011;62505;46.070;14.492;2023-08-06T07:49:46;3.45;;;0.60;;
74152;SDS011;62505;46.070;14.492;2023-08-06T07:52:13;1.50;;;0.40;;
74152;SDS011;62505;46.070;14.492;2023-08-06T07:54:42;0.88;;;0.40;;
74152;SDS011;62505;46.070;14.492;2023-08-06T07:57:09;0.95;;;0.40;;
74152;SDS011;62505;46.070;14.492;2023-08-06T07:59:36;0.30;;;0.30;;
74152;SDS011;62505;46.070;14.492;2023-08-06T08:02:03;0.82;;;0.50;;
74152;SDS011;62505;46.070;14.492;2023-08-06T08:04:31;2.35;;;0.50;;
74152;SDS011;62505;46.070;14.492;2023-08-06T08:06:58;2.67;;;0.60;;
74152;SDS011;62505;46.070;14.492;2023-08-06T08:09:25;1.30;;;0.50;;
74152;SDS011;62505;46.070;14.492;2023-08-06T08:11:54;3.83;;;0.65;;
74152;SDS011;62505;46.070;14.492;2023-08-06T08:14:21;3.25;;;0.88;;
74152;SDS011;62505;46.070;14.492;2023-08-06T08:16:48;4.47;;;0.60;;
74152;SDS011;62505;46.070;14.492;2023-08-06T08:19:14;3.08;;;0.70;;
74152;SDS011;62505;46.070;14.492;2023-08-06T08:21:41;2.60;;;0.95;;
74152;SDS011;62505;46.070;14.492;2023-08-06T08:24:09;4.47;;;0.95;;
74152;SDS011;62505;46.070;14.492;2023-08-06T08:26:36;0.82;;;0.50;;
74152;SDS011;62505;46.070;14.492;2023-08-06T08:29:04;0.80;;;0.60;;
74152;SDS011;62505;46.070;14.492;2023-08-06T08:31:31;1.75;;;0.80;;
74152;SDS011;62505;46.070;14.492;2023-08-06T08:34:04;2.92;;;0.60;;
74152;SDS011;62505;46.070;14.492;2023-08-06T08:36:31;1.15;;;0.50;;
74152;SDS011;62505;46.070;14.492;2023-08-06T08:38:58;1.42;;;0.43;;
74152;SDS011;62505;46.070;14.492;2023-08-06T08:41:27;0.90;;;0.50;;
74152;SDS011;62505;46.070;14.492;2023-08-06T08:43:55;1.45;;;0.50;;
74152;SDS011;62505;46.070;14.492;2023-08-06T08:46:25;1.15;;;0.70;;
74152;SDS011;62505;46.070;14.492;2023-08-06T08:48:53;3.38;;;0.52;;
74152;SDS011;62505;46.070;14.492;2023-08-06T08:51:22;1.55;;;0.60;;
74152;SDS011;62505;46.070;14.492;2023-08-06T08:53:50;2.08;;;0.52;;
74152;SDS011;62505;46.070;14.492;2023-08-06T08:56:21;4.15;;;0.50;;
74152;SDS011;62505;46.070;14.492;2023-08-06T08:58:48;2.20;;;0.60;;
74152;SDS011;62505;46.070;14.492;2023-08-06T09:01:15;0.60;;;0.50;;
74152;SDS011;62505;46.070;14.492;2023-08-06T09:03:44;0.80;;;0.50;;
74152;SDS011;62505;46.070;14.492;2023-08-06T09:06:11;0.70;;;0.50;;
74152;SDS011;62505;46.070;14.492;2023-08-06T09:08:41;0.90;;;0.70;;
74152;SDS011;62505;46.070;14.492;2023-08-06T09:11:13;3.63;;;0.70;;
74152;SDS011;62505;46.070;14.492;2023-08-06T09:13:41;1.05;;;0.70;;
74152;SDS011;62505;46.070;14.492;2023-08-06T09:16:08;0.50;;;0.28;;
74152;SDS011;62505;46.070;14.492;2023-08-06T09:18:35;0.50;;;0.50;;
74152;SDS011;62505;46.070;14.492;2023-08-06T09:21:07;0.93;;;0.55;;
74152;SDS011;62505;46.070;14.492;2023-08-06T09:23:41;0.32;;;0.32;;
74152;SDS011;62505;46.070;14.492;2023-08-06T09:26:11;1.42;;;0.52;;
74152;SDS011;62505;46.070;14.492;2023-08-06T09:28:41;2.72;;;0.52;;
74152;SDS011;62505;46.070;14.492;2023-08-06T09:31:08;1.13;;;0.45;;
74152;SDS011;62505;46.070;14.492;2023-08-06T09:33:36;0.45;;;0.45;;
74152;SDS011;62505;46.070;14.492;2023-08-06T09:36:09;0.57;;;0.52;;
74152;SDS011;62505;46.070;14.492;2023-08-06T09:38:40;1.70;;;0.50;;
74152;SDS011;62505;46.070;14.492;2023-08-06T09:41:07;2.92;;;0.80;;
74152;SDS011;62505;46.070;14.492;2023-08-06T09:43:41;0.73;;;0.50;;
74152;SDS011;62505;46.070;14.492;2023-08-06T09:46:11;1.45;;;0.60;;
74152;SDS011;62505;46.070;14.492;2023-08-06T09:48:44;1.67;;;0.40;;
74152;SDS011;62505;46.070;14.492;2023-08-06T09:51:13;1.73;;;0.55;;
74152;SDS011;62505;46.070;14.492;2023-08-06T09:53:40;0.70;;;0.68;;
74152;SDS011;62505;46.070;14.492;2023-08-06T09:56:08;0.90;;;0.57;;
74152;SDS011;62505;46.070;14.492;2023-08-06T09:58:37;0.73;;;0.40;;
74152;SDS011;62505;46.070;14.492;2023-08-06T10:01:05;1.73;;;0.40;;
74152;SDS011;62505;46.070;14.492;2023-08-06T10:03:33;1.73;;;0.40;;
74152;SDS011;62505;46.070;14.492;2023-08-06T10:06:01;0.57;;;0.40;;
74152;SDS011;62505;46.070;14.492;2023-08-06T10:08:33;0.75;;;0.50;;
74152;SDS011;62505;46.070;14.492;2023-08-06T10:11:01;0.40;;;0.40;;
74152;SDS011;62505;46.070;14.492;2023-08-06T10:13:30;0.60;;;0.40;;
74152;SDS011;62505;46.070;14.492;2023-08-06T10:16:00;0.32;;;0.32;;
74152;SDS011;62505;46.070;14.492;2023-08-06T10:18:28;0.60;;;0.40;;
74152;SDS011;62505;46.070;14.492;2023-08-06T10:20:56;2.33;;;0.40;;
74152;SDS011;62505;46.070;14.492;2023-08-06T10:23:34;0.68;;;0.40;;
74152;SDS011;62505;46.070;14.492;2023-08-06T10:26:03;1.20;;;0.57;;
74152;SDS011;62505;46.070;14.492;2023-08-06T10:28:33;1.15;;;0.70;;
74152;SDS011;62505;46.070;14.492;2023-08-06T10:31:02;2.70;;;0.90;;
74152;SDS011;62505;46.070;14.492;2023-08-06T10:33:39;1.95;;;0.73;;
74152;SDS011;62505;46.070;14.492;2023-08-06T10:36:08;1.45;;;0.60;;
74152;SDS011;62505;46.070;14.492;2023-08-06T10:38:45;1.52;;;0.80;;
74152;SDS011;62505;46.070;14.492;2023-08-06T10:41:17;4.22;;;1.23;;
74152;SDS011;62505;46.070;14.492;2023-08-06T10:43:49;19.83;;;2.58;;
74152;SDS011;62505;46.070;14.492;2023-08-06T10:46:23;44.70;;;5.40;;
74152;SDS011;62505;46.070;14.492;2023-08-06T10:48:53;30.48;;;5.35;;
74152;SDS011;62505;46.070;14.492;2023-08-06T10:51:20;54.30;;;7.40;;
74152;SDS011;62505;46.070;14.492;2023-08-06T10:53:49;58.33;;;8.82;;
74152;SDS011;62505;46.070;14.492;2023-08-06T10:56:17;78.13;;;10.80;;
74152;SDS011;62505;46.070;14.492;2023-08-06T10:58:45;83.72;;;11.10;;
74152;SDS011;62505;46.070;14.492;2023-08-06T11:01:12;89.70;;;10.40;;
74152;SDS011;62505;46.070;14.492;2023-08-06T11:03:42;65.75;;;10.55;;
74152;SDS011;62505;46.070;14.492;2023-08-06T11:06:09;54.03;;;7.32;;
74152;SDS011;62505;46.070;14.492;2023-08-06T11:08:38;56.72;;;8.02;;
74152;SDS011;62505;46.070;14.492;2023-08-06T11:11:11;29.60;;;6.05;;
74152;SDS011;62505;46.070;14.492;2023-08-06T11:13:39;31.10;;;5.43;;
74152;SDS011;62505;46.070;14.492;2023-08-06T11:16:07;28.45;;;4.28;;
74152;SDS011;62505;46.070;14.492;2023-08-06T11:18:34;25.63;;;4.53;;
74152;SDS011;62505;46.070;14.492;2023-08-06T11:21:02;19.20;;;3.08;;
74152;SDS011;62505;46.070;14.492;2023-08-06T11:23:29;17.67;;;2.92;;
74152;SDS011;62505;46.070;14.492;2023-08-06T11:25:59;17.17;;;2.40;;
74152;SDS011;62505;46.070;14.492;2023-08-06T11:28:27;8.23;;;1.73;;
74152;SDS011;62505;46.070;14.492;2023-08-06T11:30:54;15.48;;;2.63;;
74152;SDS011;62505;46.070;14.492;2023-08-06T11:33:22;9.75;;;1.95;;
74152;SDS011;62505;46.070;14.492;2023-08-06T11:35:50;15.23;;;2.22;;
74152;SDS011;62505;46.070;14.492;2023-08-06T11:38:18;19.15;;;2.65;;
74152;SDS011;62505;46.070;14.492;2023-08-06T11:40:45;10.63;;;1.65;;
74152;SDS011;62505;46.070;14.492;2023-08-06T11:43:13;10.50;;;1.60;;
74152;SDS011;62505;46.070;14.492;2023-08-06T11:45:42;6.38;;;1.48;;
74152;SDS011;62505;46.070;14.492;2023-08-06T11:48:09;7.15;;;1.48;;
74152;SDS011;62505;46.070;14.492;2023-08-06T11:50:36;5.15;;;1.17;;
74152;SDS011;62505;46.070;14.492;2023-08-06T11:53:04;6.60;;;1.48;;
74152;SDS011;62505;46.070;14.492;2023-08-06T11:55:31;4.13;;;0.82;;
74152;SDS011;62505;46.070;14.492;2023-08-06T11:58:02;6.28;;;1.00;;
74152;SDS011;62505;46.070;14.492;2023-08-06T12:00:30;1.95;;;0.68;;
74152;SDS011;62505;46.070;14.492;2023-08-06T12:02:58;6.50;;;0.80;;
74152;SDS011;62505;46.070;14.492;2023-08-06T12:05:29;5.55;;;1.02;;
74152;SDS011;62505;46.070;14.492;2023-08-06T12:07:58;3.08;;;0.80;;
74152;SDS011;62505;46.070;14.492;2023-08-06T12:10:26;4.22;;;0.73;;
74152;SDS011;62505;46.070;14.492;2023-08-06T12:12:54;1.60;;;0.70;;
74152;SDS011;62505;46.070;14.492;2023-08-06T12:15:22;2.05;;;0.63;;
74152;SDS011;62505;46.070;14.492;2023-08-06T12:17:50;3.38;;;0.60;;
74152;SDS011;62505;46.070;14.492;2023-08-06T12:20:18;1.90;;;0.60;;
74152;SDS011;62505;46.070;14.492;2023-08-06T12:22:45;1.10;;;0.70;;
74152;SDS011;62505;46.070;14.492;2023-08-06T12:25:12;1.55;;;0.65;;
74152;SDS011;62505;46.070;14.492;2023-08-06T12:27:40;0.93;;;0.47;;
74152;SDS011;62505;46.070;14.492;2023-08-06T12:30:09;3.30;;;0.55;;
74152;SDS011;62505;46.070;14.492;2023-08-06T12:32:37;5.47;;;0.82;;
74152;SDS011;62505;46.070;14.492;2023-08-06T12:35:05;5.00;;;1.40;;
74152;SDS011;62505;46.070;14.492;2023-08-06T12:37:34;8.52;;;1.42;;
74152;SDS011;62505;46.070;14.492;2023-08-06T12:40:03;6.30;;;0.90;;
74152;SDS011;62505;46.070;14.492;2023-08-06T12:42:31;2.28;;;0.90;;
74152;SDS011;62505;46.070;14.492;2023-08-06T12:44:58;2.35;;;0.75;;
74152;SDS011;62505;46.070;14.492;2023-08-06T12:47:25;6.32;;;0.73;;
74152;SDS011;62505;46.070;14.492;2023-08-06T12:49:52;1.20;;;0.60;;
74152;SDS011;62505;46.070;14.492;2023-08-06T12:52:19;3.80;;;0.60;;
74152;SDS011;62505;46.070;14.492;2023-08-06T12:54:48;1.52;;;0.73;;
74152;SDS011;62505;46.070;14.492;2023-08-06T12:57:15;1.95;;;0.60;;
74152;SDS011;62505;46.070;14.492;2023-08-06T12:59:42;1.38;;;0.50;;
74152;SDS011;62505;46.070;14.492;2023-08-06T13:02:09;0.50;;;0.40;;
74152;SDS011;62505;46.070;14.492;2023-08-06T13:04:36;2.78;;;0.80;;
74152;SDS011;62505;46.070;14.492;2023-08-06T13:07:03;1.35;;;0.70;;
74152;SDS011;62505;46.070;14.492;2023-08-06T13:09:31;1.25;;;0.52;;
74152;SDS011;62505;46.070;14.492;2023-08-06T13:12:00;2.35;;;0.80;;
74152;SDS011;62505;46.070;14.492;2023-08-06T13:14:30;2.28;;;0.50;;
74152;SDS011;62505;46.070;14.492;2023-08-06T13:16:57;0.95;;;0.50;;
74152;SDS011;62505;46.070;14.492;2023-08-06T13:19:24;0.93;;;0.60;;
74152;SDS011;62505;46.070;14.492;2023-08-06T13:21:58;0.80;;;0.52;;
74152;SDS011;62505;46.070;14.492;2023-08-06T13:24:27;1.40;;;0.60;;
74152;SDS011;62505;46.070;14.492;2023-08-06T13:26:54;0.70;;;0.50;;
74152;SDS011;62505;46.070;14.492;2023-08-06T13:29:23;0.52;;;0.52;;
74152;SDS011;62505;46.070;14.492;2023-08-06T13:31:50;0.80;;;0.47;;
74152;SDS011;62505;46.070;14.492;2023-08-06T13:34:17;0.50;;;0.50;;
74152;SDS011;62505;46.070;14.492;2023-08-06T13:36:44;0.60;;;0.50;;
74152;SDS011;62505;46.070;14.492;2023-08-06T13:39:11;5.88;;;0.60;;
74152;SDS011;62505;46.070;14.492;2023-08-06T13:41:41;0.50;;;0.40;;
74152;SDS011;62505;46.070;14.492;2023-08-06T13:44:08;0.50;;;0.40;;
74152;SDS011;62505;46.070;14.492;2023-08-06T13:46:37;0.70;;;0.47;;
74152;SDS011;62505;46.070;14.492;2023-08-06T13:49:04;2.08;;;0.57;;
74152;SDS011;62505;46.070;14.492;2023-08-06T13:51:31;2.30;;;0.63;;
74152;SDS011;62505;46.070;14.492;2023-08-06T13:53:59;1.38;;;0.40;;
74152;SDS011;62505;46.070;14.492;2023-08-06T13:56:26;1.13;;;0.60;;
74152;SDS011;62505;46.070;14.492;2023-08-06T13:58:54;1.45;;;0.57;;
74152;SDS011;62505;46.070;14.492;2023-08-06T14:01:21;1.20;;;0.57;;
74152;SDS011;62505;46.070;14.492;2023-08-06T14:03:50;0.80;;;0.47;;
74152;SDS011;62505;46.070;14.492;2023-08-06T14:06:18;0.85;;;0.50;;
74152;SDS011;62505;46.070;14.492;2023-08-06T14:08:45;0.65;;;0.60;;
74152;SDS011;62505;46.070;14.492;2023-08-06T14:11:12;1.30;;;0.57;;
74152;SDS011;62505;46.070;14.492;2023-08-06T14:13:39;1.88;;;0.60;;
74152;SDS011;62505;46.070;14.492;2023-08-06T14:16:06;3.60;;;0.95;;
74152;SDS011;62505;46.070;14.492;2023-08-06T14:18:34;0.70;;;0.52;;
74152;SDS011;62505;46.070;14.492;2023-08-06T14:21:04;0.40;;;0.40;;
74152;SDS011;62505;46.070;14.492;2023-08-06T14:23:31;2.50;;;0.77;;
74152;SDS011;62505;46.070;14.492;2023-08-06T14:25:58;1.08;;;0.73;;
74152;SDS011;62505;46.070;14.492;2023-08-06T14:28:25;1.38;;;0.60;;
74152;SDS011;62505;46.070;14.492;2023-08-06T14:30:52;1.20;;;0.80;;
74152;SDS011;62505;46.070;14.492;2023-08-06T14:33:20;0.82;;;0.65;;
74152;SDS011;62505;46.070;14.492;2023-08-06T14:35:47;1.10;;;0.80;;
74152;SDS011;62505;46.070;14.492;2023-08-06T14:38:18;1.65;;;0.60;;